Time;durP1;ratioP1;P1;durP2;ratioP2;P2;SDS_P1;SDS_P2;PMS_P1;PMS_P2;Temp;Humidity;BMP_temperature;BMP_pressure;BME280_temperature;BME280_humidity;BME280_pressure;Samples;Min_cycle;Max_cycle;Signal;HPM_P1;HPM_P2
2023/12/11 00:00:19;;;;;;;18.13;6.88;;;;;;;0.52;78.12;100818.78;5058750;28;20080;-68
2023/12/11 00:02:46;;;;;;;16.85;7.35;;;;;;;0.54;78.30;100818.81;5057073;28;20559;-69
2023/12/11 00:05:13;;;;;;;17.63;8.70;;;;;;;0.54;78.24;100817.09;5058874;28;20579;-68
2023/12/11 00:07:39;;;;;;;16.67;6.60;;;;;;;0.54;78.09;100806.81;5060654;28;20076;-68
2023/12/11 00:10:09;;;;;;;14.82;6.90;;;;;;;0.55;78.30;100807.69;5055228;28;20103;-70
2023/12/11 00:12:36;;;;;;;13.13;6.45;;;;;;;0.54;78.29;100806.81;5060384;28;20080;-70
2023/12/11 00:15:03;;;;;;;13.80;6.75;;;;;;;0.56;78.34;100805.09;5055774;28;20727;-69
2023/12/11 00:17:30;;;;;;;13.48;7.55;;;;;;;0.56;78.27;100812.84;5054930;28;20098;-70
2023/12/11 00:19:57;;;;;;;15.70;6.68;;;;;;;0.56;77.88;100804.25;5057133;28;20141;-71
2023/12/11 00:22:24;;;;;;;15.27;6.28;;;;;;;0.58;78.26;100808.59;5054176;28;20107;-70
2023/12/11 00:24:52;;;;;;;17.00;7.75;;;;;;;0.57;78.04;100806.88;5055373;28;20410;-70
2023/12/11 00:27:20;;;;;;;14.93;8.35;;;;;;;0.58;78.38;100803.44;5057693;28;20098;-71
2023/12/11 00:29:47;;;;;;;16.70;7.50;;;;;;;0.58;78.33;100807.72;5059179;28;20102;-70
2023/12/11 00:32:14;;;;;;;18.65;7.55;;;;;;;0.59;77.89;100804.31;5057574;28;20491;-70
2023/12/11 00:34:41;;;;;;;13.82;6.75;;;;;;;0.60;78.24;100805.19;5060655;28;20049;-70
2023/12/11 00:37:08;;;;;;;12.07;6.13;;;;;;;0.60;78.20;100807.78;5054922;28;20111;-70
2023/12/11 00:39:35;;;;;;;10.90;5.65;;;;;;;0.60;77.75;100813.78;5058503;28;20083;-70
2023/12/11 00:42:02;;;;;;;12.73;6.57;;;;;;;0.61;77.63;100812.06;5054022;28;20064;-70
2023/12/11 00:44:30;;;;;;;16.08;7.05;;;;;;;0.63;77.63;100815.56;5060863;28;20049;-71
2023/12/11 00:46:57;;;;;;;16.40;7.72;;;;;;;0.61;77.99;100802.63;5055173;28;20572;-71
2023/12/11 00:49:24;;;;;;;16.50;6.85;;;;;;;0.62;78.09;100804.34;5058067;28;20052;-70
2023/12/11 00:51:53;;;;;;;15.43;6.95;;;;;;;0.63;78.18;100800.09;5056642;28;20098;-71
2023/12/11 00:54:20;;;;;;;17.13;7.35;;;;;;;0.63;77.77;100789.81;5057258;28;20041;-70
2023/12/11 00:56:47;;;;;;;16.33;6.35;;;;;;;0.64;78.05;100789.81;5061662;28;20563;-70
2023/12/11 00:59:14;;;;;;;12.48;4.85;;;;;;;0.64;78.23;100786.38;5057348;28;20105;-70
2023/12/11 01:01:43;;;;;;;19.00;6.28;;;;;;;0.65;77.78;100783.84;5057391;28;20045;-70
2023/12/11 01:04:10;;;;;;;10.73;4.28;;;;;;;0.65;78.11;100783.84;5055436;28;20596;-70
2023/12/11 01:06:36;;;;;;;13.38;6.68;;;;;;;0.68;77.65;100788.16;5057954;28;20052;-70
2023/12/11 01:09:04;;;;;;;14.70;6.57;;;;;;;0.69;77.95;100785.63;5058905;28;20080;-71
2023/12/11 01:11:31;;;;;;;15.82;5.88;;;;;;;0.71;78.05;100783.94;5058861;28;20047;-71
2023/12/11 01:13:58;;;;;;;13.60;6.22;;;;;;;0.72;77.77;100783.09;5055716;28;20537;-70
2023/12/11 01:16:25;;;;;;;16.27;7.15;;;;;;;0.73;77.87;100782.25;5060830;28;20125;-71
2023/12/11 01:18:53;;;;;;;12.80;5.93;;;;;;;0.74;77.50;100785.72;5059496;28;20080;-70
2023/12/11 01:21:20;;;;;;;11.95;5.57;;;;;;;0.75;77.41;100782.28;5061250;28;20056;-68
2023/12/11 01:23:47;;;;;;;17.90;7.18;;;;;;;0.76;77.40;100786.59;5058996;28;20571;-68
2023/12/11 01:26:14;;;;;;;13.93;6.55;;;;;;;0.77;77.67;100778.03;5061049;28;20045;-68
2023/12/11 01:28:41;;;;;;;14.57;6.20;;;;;;;0.76;77.45;100782.28;5059351;28;20125;-68
2023/12/11 01:31:08;;;;;;;18.50;8.50;;;;;;;0.77;77.92;100776.31;5062177;28;20477;-70
2023/12/11 01:33:35;;;;;;;10.30;6.00;;;;;;;0.78;77.54;100774.59;5059691;28;20057;-70
2023/12/11 01:36:04;;;;;;;14.23;7.03;;;;;;;0.78;77.44;100764.31;5061815;28;20467;-70
2023/12/11 01:38:31;;;;;;;16.33;6.65;;;;;;;0.78;77.81;100764.31;5062361;28;20098;-70
2023/12/11 01:40:58;;;;;;;21.13;9.45;;;;;;;0.78;77.93;100757.44;5059630;28;20176;-69
2023/12/11 01:43:25;;;;;;;15.45;7.03;;;;;;;0.78;77.96;100749.72;5058926;28;20076;-69
2023/12/11 01:46:01;;;;;;;16.92;6.72;;;;;;;0.78;77.96;100744.56;5059466;28;20395;-69
2023/12/11 01:48:29;;;;;;;25.13;11.13;;;;;;;0.77;77.54;100741.97;5062590;28;20132;-70
2023/12/11 01:50:56;;;;;;;20.63;8.15;;;;;;;0.78;77.84;100747.13;5058107;28;20053;-69
2023/12/11 01:53:25;;;;;;;18.42;8.98;;;;;;;0.77;78.04;100736.84;5059671;28;20051;-70
2023/12/11 01:55:52;;;;;;;21.83;9.48;;;;;;;0.77;78.27;100741.97;5058321;28;20048;-69
2023/12/11 01:58:20;;;;;;;20.85;10.15;;;;;;;0.77;78.02;100742.84;5056624;28;20052;-70
2023/12/11 02:00:47;;;;;;;19.10;8.00;;;;;;;0.77;78.27;100732.53;5060508;28;20129;-70
2023/12/11 02:03:15;;;;;;;20.98;8.27;;;;;;;0.79;78.17;100737.69;5060383;28;20040;-70
2023/12/11 02:05:43;;;;;;;20.38;9.38;;;;;;;0.78;78.06;100733.41;5060630;28;20052;-70
2023/12/11 02:08:10;;;;;;;23.08;8.05;;;;;;;0.79;78.35;100740.28;5057455;28;20048;-70
2023/12/11 02:10:39;;;;;;;18.48;9.15;;;;;;;0.78;78.35;100725.69;5060955;28;20482;-70
2023/12/11 02:13:05;;;;;;;19.75;8.32;;;;;;;0.79;78.35;100729.97;5059324;28;20076;-70
2023/12/11 02:15:39;;;;;;;21.85;9.32;;;;;;;0.77;78.32;100727.38;5060661;28;20134;-69
2023/12/11 02:18:08;;;;;;;19.90;7.70;;;;;;;0.76;78.18;100733.34;5060371;28;20114;-69
2023/12/11 02:20:35;;;;;;;24.27;8.93;;;;;;;0.73;78.11;100719.56;5060071;28;20120;-69
2023/12/11 02:23:05;;;;;;;18.73;8.80;;;;;;;0.76;78.27;100727.34;5061671;28;20076;-70
2023/12/11 02:25:35;;;;;;;19.75;9.13;;;;;;;0.77;78.23;100721.38;5051287;28;20072;-69
2023/12/11 02:28:03;;;;;;;22.63;8.85;;;;;;;0.75;78.33;100723.91;5055243;28;20045;-69
2023/12/11 02:30:32;;;;;;;20.83;8.07;;;;;;;0.76;78.13;100724.78;5058189;28;20221;-73
2023/12/11 02:32:59;;;;;;;16.95;8.40;;;;;;;0.74;78.75;100722.19;5057980;28;20544;-73
2023/12/11 02:35:26;;;;;;;18.63;8.80;;;;;;;0.75;78.53;100723.91;5059657;28;20098;-73
2023/12/11 02:37:53;;;;;;;20.33;8.38;;;;;;;0.75;78.46;100718.75;5054850;28;20508;-73
2023/12/11 02:40:20;;;;;;;19.85;8.98;;;;;;;0.76;78.78;100717.91;5061161;28;20048;-75
2023/12/11 02:42:47;;;;;;;20.27;9.90;;;;;;;0.76;78.40;100714.47;5055702;28;20119;-76
2023/12/11 02:45:15;;;;;;;18.05;8.43;;;;;;;0.76;78.51;100714.47;5060060;28;20063;-76
2023/12/11 02:47:42;;;;;;;22.40;8.30;;;;;;;0.75;78.92;100715.31;5057469;28;20087;-76
2023/12/11 02:50:10;;;;;;;20.02;9.70;;;;;;;0.76;79.10;100711.91;5054046;28;20053;-76
2023/12/11 02:52:37;;;;;;;18.17;10.60;;;;;;;0.74;79.30;100704.16;5060290;28;20617;-76
2023/12/11 02:55:04;;;;;;;22.52;10.95;;;;;;;0.74;79.48;100704.16;5059133;28;20581;-76
2023/12/11 02:57:31;;;;;;;19.23;8.95;;;;;;;0.73;78.93;100696.41;5058090;28;20080;-77
2023/12/11 02:59:58;;;;;;;21.35;8.20;;;;;;;0.73;78.86;100696.41;5060379;28;20040;-76
2023/12/11 03:02:26;;;;;;;21.30;10.05;;;;;;;0.72;79.00;100703.25;5058198;28;20080;-76
2023/12/11 03:04:53;;;;;;;21.17;9.52;;;;;;;0.71;79.51;100700.69;5056768;28;20510;-75
2023/12/11 03:07:20;;;;;;;23.30;10.45;;;;;;;0.70;79.84;100694.63;5056360;28;20067;-76
2023/12/11 03:09:47;;;;;;;19.23;10.43;;;;;;;0.71;79.97;100690.38;5057335;28;20080;-76
2023/12/11 03:12:14;;;;;;;21.80;10.05;;;;;;;0.69;79.93;100687.78;5059047;28;20044;-76
2023/12/11 03:14:41;;;;;;;23.20;9.43;;;;;;;0.70;80.19;100686.06;5054914;28;20487;-76
2023/12/11 03:17:08;;;;;;;24.10;8.57;;;;;;;0.69;80.16;100684.34;5060578;28;20041;-77
2023/12/11 03:19:36;;;;;;;21.95;9.95;;;;;;;0.68;80.03;100682.56;5055248;28;20110;-76
2023/12/11 03:22:03;;;;;;;24.25;9.73;;;;;;;0.66;80.55;100682.56;5058798;28;20102;-76
2023/12/11 03:24:30;;;;;;;25.92;10.75;;;;;;;0.65;80.36;100682.53;5059764;28;20114;-76
2023/12/11 03:26:57;;;;;;;19.38;9.60;;;;;;;0.63;80.66;100673.94;5053871;28;20130;-76
2023/12/11 03:29:24;;;;;;;26.15;11.30;;;;;;;0.64;81.03;100673.09;5058685;28;20090;-76
2023/12/11 03:31:51;;;;;;;20.13;8.52;;;;;;;0.62;80.94;100669.59;5060976;28;20052;-75
2023/12/11 03:34:18;;;;;;;27.88;12.10;;;;;;;0.62;81.06;100667.91;5053896;28;20049;-76
2023/12/11 03:36:46;;;;;;;18.95;9.38;;;;;;;0.62;80.73;100659.31;5062139;28;20097;-76
2023/12/11 03:39:14;;;;;;;26.13;11.10;;;;;;;0.62;81.10;100664.47;5055762;28;20049;-76
2023/12/11 03:41:41;;;;;;;23.15;10.93;;;;;;;0.62;81.50;100667.03;5058238;28;20041;-76
2023/12/11 03:44:08;;;;;;;22.83;10.65;;;;;;;0.61;81.34;100662.75;5059337;28;20133;-76
2023/12/11 03:46:35;;;;;;;23.95;10.55;;;;;;;0.61;80.97;100666.19;5056367;28;20076;-76
2023/12/11 03:49:02;;;;;;;25.95;11.23;;;;;;;0.61;81.12;100666.19;5058410;28;20141;-76
2023/12/11 03:51:29;;;;;;;21.42;10.20;;;;;;;0.61;81.30;100662.75;5059924;28;20159;-71
2023/12/11 03:53:57;;;;;;;22.45;9.30;;;;;;;0.56;81.19;100660.94;5056189;28;20084;-73
2023/12/11 03:56:24;;;;;;;25.02;10.40;;;;;;;0.60;81.79;100661.88;5059664;28;20137;-72
2023/12/11 03:58:51;;;;;;;24.48;10.63;;;;;;;0.60;81.82;100667.03;5052928;28;20044;-72
2023/12/11 04:01:18;;;;;;;25.15;9.63;;;;;;;0.60;81.50;100658.44;5055670;28;20079;-72
2023/12/11 04:03:45;;;;;;;25.48;10.10;;;;;;;0.60;81.63;100661.88;5058955;28;20076;-72
2023/12/11 04:06:12;;;;;;;24.77;10.25;;;;;;;0.60;81.62;100649.00;5059547;28;20087;-72
2023/12/11 04:08:41;;;;;;;25.50;9.10;;;;;;;0.61;81.80;100655.00;5056393;28;20410;-72
2023/12/11 04:11:10;;;;;;;20.83;10.35;;;;;;;0.61;81.79;100653.31;5059804;28;20683;-72
2023/12/11 04:13:37;;;;;;;27.08;10.02;;;;;;;0.60;81.71;100643.00;5054595;28;20143;-72
2023/12/11 04:16:05;;;;;;;21.80;8.45;;;;;;;0.60;81.12;100645.56;5053081;28;20048;-73
2023/12/11 04:18:33;;;;;;;25.90;9.38;;;;;;;0.60;81.74;100638.72;5056958;28;20610;-72
2023/12/11 04:21:00;;;;;;;26.23;9.82;;;;;;;0.60;82.00;100637.84;5053779;28;20080;-73
2023/12/11 04:23:27;;;;;;;21.70;9.77;;;;;;;0.59;81.97;100634.38;5056683;28;20499;-72
2023/12/11 04:25:54;;;;;;;22.10;7.30;;;;;;;0.59;81.76;100629.22;5054255;28;20555;-72
2023/12/11 04:28:23;;;;;;;17.90;7.28;;;;;;;0.58;82.16;100628.38;5058385;28;20053;-72
2023/12/11 04:30:50;;;;;;;22.20;8.70;;;;;;;0.58;81.62;100612.91;5055776;28;20091;-72
2023/12/11 04:33:17;;;;;;;16.33;7.32;;;;;;;0.59;82.19;100618.94;5058230;28;20072;-72
2023/12/11 04:35:45;;;;;;;20.10;8.32;;;;;;;0.58;81.81;100618.06;5055280;28;20068;-71
2023/12/11 04:38:12;;;;;;;19.73;8.20;;;;;;;0.58;82.05;100612.91;5058748;28;20052;-72
2023/12/11 04:40:40;;;;;;;15.60;6.53;;;;;;;0.60;81.76;100609.53;5058264;28;20045;-72
2023/12/11 04:43:07;;;;;;;16.23;6.97;;;;;;;0.60;81.82;100610.38;5054159;28;20466;-72
2023/12/11 04:45:35;;;;;;;16.88;7.57;;;;;;;0.60;81.78;100615.53;5050918;28;20080;-72
2023/12/11 04:48:02;;;;;;;18.58;7.93;;;;;;;0.60;81.97;100610.38;5057787;28;20068;-72
2023/12/11 04:50:29;;;;;;;17.92;7.60;;;;;;;0.60;81.73;100614.69;5058296;28;20083;-70
2023/12/11 04:52:56;;;;;;;19.77;8.15;;;;;;;0.61;81.93;100611.25;5059025;28;20071;-70
2023/12/11 04:55:23;;;;;;;15.75;6.85;;;;;;;0.62;82.23;100613.81;5058068;28;20516;-71
2023/12/11 04:57:50;;;;;;;14.52;6.72;;;;;;;0.62;82.12;100610.41;5062071;28;20585;-70
2023/12/11 05:00:18;;;;;;;11.98;6.38;;;;;;;0.64;82.29;100601.00;5062776;28;20098;-78
2023/12/11 05:02:46;;;;;;;15.68;5.43;;;;;;;0.63;82.32;100602.72;5060063;28;20045;-77
2023/12/11 05:05:14;;;;;;;12.40;5.43;;;;;;;0.65;82.07;100610.44;5069872;28;20122;-76
2023/12/11 05:07:41;;;;;;;11.75;5.10;;;;;;;0.65;82.02;100602.72;5061160;28;20041;-79
2023/12/11 05:10:09;;;;;;;8.90;4.55;;;;;;;0.65;82.30;100598.47;5061937;28;20049;-77
2023/12/11 05:12:36;;;;;;;10.93;4.65;;;;;;;0.65;81.92;100598.47;5071067;28;20407;-78
2023/12/11 05:15:03;;;;;;;12.93;5.05;;;;;;;0.62;81.79;100595.81;5066154;28;20551;-78
2023/12/11 05:17:30;;;;;;;8.98;4.65;;;;;;;0.67;82.32;100601.91;5065446;28;20068;-78
2023/12/11 05:19:58;;;;;;;10.88;4.82;;;;;;;0.67;81.64;100595.88;5064918;28;20471;-77
2023/12/11 05:22:25;;;;;;;8.88;4.60;;;;;;;0.64;81.61;100591.56;5065301;28;20044;-77
2023/12/11 05:24:52;;;;;;;9.30;5.55;;;;;;;0.68;82.19;100592.47;5067609;28;20068;-77
2023/12/11 05:27:19;;;;;;;11.75;4.55;;;;;;;0.69;82.23;100602.78;5063434;28;20049;-76
2023/12/11 05:29:46;;;;;;;8.02;3.70;;;;;;;0.69;82.08;100602.78;5065162;28;20087;-77
2023/12/11 05:32:14;;;;;;;9.15;3.75;;;;;;;0.70;82.17;100603.66;5062173;28;20044;-77
2023/12/11 05:34:41;;;;;;;11.13;4.40;;;;;;;0.70;81.86;100596.78;5065547;28;20053;-77
2023/12/11 05:37:10;;;;;;;9.40;4.75;;;;;;;0.69;82.07;100597.66;5057490;28;20463;-77
2023/12/11 05:39:37;;;;;;;7.63;4.13;;;;;;;0.70;82.21;100604.50;5064646;28;20080;-76
2023/12/11 05:42:04;;;;;;;10.98;4.03;;;;;;;0.68;82.15;100601.06;5065725;28;20072;-77
2023/12/11 05:44:31;;;;;;;11.93;4.97;;;;;;;0.68;82.02;100600.19;5057575;28;20119;-76
2023/12/11 05:46:58;;;;;;;11.90;4.25;;;;;;;0.68;82.34;100592.47;5054943;28;20106;-77
2023/12/11 05:49:25;;;;;;;8.07;3.33;;;;;;;0.67;81.95;100596.75;5065488;28;20506;-76
2023/12/11 05:51:53;;;;;;;9.93;3.85;;;;;;;0.66;82.19;100596.75;5065701;28;20079;-77
2023/12/11 05:54:21;;;;;;;4.90;3.00;;;;;;;0.65;81.93;100592.41;5058883;28;20049;-76
2023/12/11 05:56:48;;;;;;;10.75;4.18;;;;;;;0.65;81.76;100588.16;5058933;28;20041;-76
2023/12/11 05:59:15;;;;;;;7.65;4.18;;;;;;;0.63;82.61;100589.84;5064152;28;20048;-76
2023/12/11 06:01:42;;;;;;;8.30;3.50;;;;;;;0.62;82.01;100582.06;5050276;28;20122;-69
2023/12/11 06:04:09;;;;;;;9.68;2.92;;;;;;;0.61;82.20;100594.09;5063721;28;20049;-70
2023/12/11 06:06:36;;;;;;;9.45;3.35;;;;;;;0.59;82.23;100593.19;5061452;28;20079;-70
2023/12/11 06:09:03;;;;;;;11.38;3.97;;;;;;;0.58;81.90;100591.47;5060465;28;20052;-70
2023/12/11 06:11:31;;;;;;;11.48;3.80;;;;;;;0.56;81.94;100594.00;5059455;28;20083;-68
2023/12/11 06:13:58;;;;;;;9.80;3.38;;;;;;;0.53;82.08;100587.94;5056088;28;20106;-69
2023/12/11 06:16:25;;;;;;;8.68;3.35;;;;;;;0.54;82.32;100590.56;5060676;28;20113;-68
2023/12/11 06:18:52;;;;;;;8.32;3.33;;;;;;;0.54;82.45;100595.72;5036277;28;20108;-69
2023/12/11 06:21:20;;;;;;;6.65;3.35;;;;;;;0.53;82.05;100593.97;5057033;28;20076;-68
2023/12/11 06:23:47;;;;;;;6.57;2.28;;;;;;;0.53;82.76;100595.66;5058898;28;20080;-68
2023/12/11 06:26:25;;;;;;;9.30;3.58;;;;;;;0.53;82.61;100590.53;5057529;28;20047;-69
2023/12/11 06:28:54;;;;;;;7.53;3.10;;;;;;;0.51;82.20;100585.38;5058120;28;20146;-69
2023/12/11 06:31:21;;;;;;;7.18;2.53;;;;;;;0.51;82.45;100592.22;5055393;28;20087;-69
2023/12/11 06:33:48;;;;;;;5.88;3.15;;;;;;;0.51;82.41;100598.25;5059783;28;20043;-69
2023/12/11 06:36:14;;;;;;;6.00;2.83;;;;;;;0.51;82.18;100590.53;5059682;28;20095;-68
2023/12/11 06:38:41;;;;;;;5.47;2.58;;;;;;;0.50;82.19;100582.75;5060064;28;20087;-68
2023/12/11 06:41:08;;;;;;;5.10;1.90;;;;;;;0.52;82.24;100591.38;5060173;28;20084;-68
2023/12/11 06:43:36;;;;;;;5.40;3.28;;;;;;;0.50;81.80;100590.47;5057675;28;20037;-69
2023/12/11 06:46:05;;;;;;;6.15;2.90;;;;;;;0.46;81.96;100581.84;5059725;28;20059;-68
2023/12/11 06:48:32;;;;;;;5.82;2.72;;;;;;;0.49;81.79;100584.47;5060410;28;20052;-69
2023/12/11 06:50:59;;;;;;;7.00;3.10;;;;;;;0.49;81.75;100586.19;5055748;28;20527;-69
2023/12/11 06:53:26;;;;;;;6.95;2.72;;;;;;;0.48;82.00;100582.75;5057646;28;20516;-68
2023/12/11 06:55:53;;;;;;;6.90;2.90;;;;;;;0.48;81.86;100590.47;5056360;28;20614;-69
2023/12/11 06:58:20;;;;;;;7.70;3.00;;;;;;;0.47;82.19;100591.28;5059947;28;20040;-69
2023/12/11 07:00:47;;;;;;;7.55;3.33;;;;;;;0.47;82.11;100583.56;5059703;28;20044;-68
2023/12/11 07:03:15;;;;;;;6.03;3.40;;;;;;;0.48;81.81;100584.44;5056475;28;20191;-69
2023/12/11 07:05:43;;;;;;;7.70;3.30;;;;;;;0.46;81.90;100581.84;5061667;28;20563;-69
2023/12/11 07:08:11;;;;;;;7.80;3.30;;;;;;;0.46;81.65;100576.72;5059857;28;20179;-68
2023/12/11 07:10:38;;;;;;;7.43;3.38;;;;;;;0.48;82.32;100585.31;5059839;28;20471;-72
2023/12/11 07:13:05;;;;;;;6.47;3.40;;;;;;;0.45;81.96;100580.13;5053694;28;20146;-73
2023/12/11 07:15:32;;;;;;;9.77;3.47;;;;;;;0.46;81.64;100576.72;5058924;28;20119;-72
2023/12/11 07:17:59;;;;;;;7.72;3.75;;;;;;;0.46;81.93;100575.84;5057276;28;20098;-72
2023/12/11 07:20:27;;;;;;;7.70;3.17;;;;;;;0.45;81.69;100582.72;5057350;28;20134;-68
2023/12/11 07:22:54;;;;;;;12.48;4.20;;;;;;;0.46;82.17;100592.16;5056247;28;20049;-69
2023/12/11 07:25:21;;;;;;;10.20;3.90;;;;;;;0.47;81.85;100593.00;5058032;28;20055;-68
2023/12/11 07:27:48;;;;;;;6.50;3.80;;;;;;;0.46;81.72;100592.16;5058420;28;20074;-68
2023/12/11 07:30:15;;;;;;;10.25;3.92;;;;;;;0.46;82.27;100591.28;5058728;28;20044;-68
2023/12/11 07:32:42;;;;;;;14.60;5.03;;;;;;;0.47;82.08;100598.16;5058673;28;20048;-68
2023/12/11 07:35:11;;;;;;;10.15;4.13;;;;;;;0.46;82.21;100594.72;5058282;28;20567;-68
2023/12/11 07:37:42;;;;;;;9.85;4.43;;;;;;;0.47;82.36;100593.88;5059286;28;20048;-68
2023/12/11 07:40:10;;;;;;;9.93;4.68;;;;;;;0.44;82.27;100593.81;5034193;28;20537;-68
2023/12/11 07:42:37;;;;;;;11.25;5.90;;;;;;;0.48;82.07;100600.78;5057077;28;20076;-68
2023/12/11 07:45:05;;;;;;;14.95;5.85;;;;;;;0.45;82.49;100600.72;5054328;28;20056;-68
2023/12/11 07:47:33;;;;;;;10.88;4.95;;;;;;;0.51;82.22;100605.09;5054268;28;20045;-69
2023/12/11 07:50:00;;;;;;;11.23;5.40;;;;;;;0.52;82.31;100605.09;5056306;28;20044;-68
2023/12/11 07:52:29;;;;;;;9.23;3.92;;;;;;;0.54;82.37;100608.59;5056196;28;20044;-68
2023/12/11 07:54:58;;;;;;;9.55;4.82;;;;;;;0.53;82.26;100604.25;5053756;28;20493;-69
2023/12/11 07:57:26;;;;;;;11.13;5.05;;;;;;;0.52;82.87;100592.25;5057719;28;20036;-68
2023/12/11 07:59:53;;;;;;;8.10;4.05;;;;;;;0.54;82.40;100600.00;5055090;28;20123;-68
2023/12/11 08:02:20;;;;;;;10.45;5.72;;;;;;;0.55;82.90;100591.41;5056547;28;20531;-68
2023/12/11 08:04:47;;;;;;;12.13;6.03;;;;;;;0.55;82.83;100602.59;5055307;28;20048;-69
2023/12/11 08:07:14;;;;;;;12.25;4.88;;;;;;;0.56;82.85;100593.16;5057371;28;20067;-69
2023/12/11 08:09:41;;;;;;;9.88;4.20;;;;;;;0.57;82.83;100589.75;5051664;28;20041;-69
2023/12/11 08:12:10;;;;;;;8.90;4.55;;;;;;;0.58;82.71;100586.31;5055182;28;20041;-69
2023/12/11 08:14:37;;;;;;;8.23;3.80;;;;;;;0.60;82.39;100592.38;5052864;28;20127;-68
2023/12/11 08:17:04;;;;;;;8.73;3.75;;;;;;;0.62;82.92;100589.78;5057218;28;20124;-69
2023/12/11 08:19:33;;;;;;;11.07;3.63;;;;;;;0.63;82.95;100591.53;5056984;28;20091;-72
2023/12/11 08:22:00;;;;;;;8.23;3.92;;;;;;;0.65;82.78;100597.56;5056446;28;20044;-71
2023/12/11 08:24:27;;;;;;;7.57;3.35;;;;;;;0.65;82.63;100595.88;5056331;28;20081;-71
2023/12/11 08:26:55;;;;;;;7.90;3.58;;;;;;;0.67;82.72;100595.88;5057153;28;20052;-71
2023/12/11 08:29:23;;;;;;;8.32;2.97;;;;;;;0.68;82.45;100584.72;5053872;28;20048;-71
2023/12/11 08:31:50;;;;;;;8.30;4.38;;;;;;;0.68;82.30;100600.19;5061456;28;20509;-70
2023/12/11 08:34:20;;;;;;;8.15;3.35;;;;;;;0.68;82.72;100601.06;5055007;28;20735;-70
2023/12/11 08:36:47;;;;;;;6.65;3.50;;;;;;;0.68;82.66;100600.19;5060108;28;20080;-70
2023/12/11 08:39:14;;;;;;;7.55;3.72;;;;;;;0.68;82.61;100600.19;5056093;28;20458;-70
2023/12/11 08:41:40;;;;;;;9.82;3.55;;;;;;;0.68;82.79;100601.06;5054416;28;20110;-70
2023/12/11 08:44:07;;;;;;;7.13;3.10;;;;;;;0.68;82.62;100598.50;5057624;28;20052;-70
2023/12/11 08:46:37;;;;;;;6.50;2.95;;;;;;;0.68;82.36;100592.47;5060701;28;20066;-70
2023/12/11 08:49:04;;;;;;;6.15;2.25;;;;;;;0.69;82.80;100604.50;5060141;28;20102;-70
2023/12/11 08:51:31;;;;;;;4.00;2.53;;;;;;;0.68;82.52;100602.75;5057415;28;20059;-70
2023/12/11 08:53:58;;;;;;;5.60;2.28;;;;;;;0.67;82.67;100601.91;5058177;28;20521;-70
2023/12/11 08:56:25;;;;;;;3.78;1.73;;;;;;;0.68;82.74;100600.19;5054571;28;20419;-70
2023/12/11 08:58:52;;;;;;;4.80;1.65;;;;;;;0.69;82.68;100604.50;5057014;28;20068;-70
2023/12/11 09:01:19;;;;;;;4.15;1.40;;;;;;;0.68;82.60;100598.50;5058880;28;20076;-69
2023/12/11 09:03:48;;;;;;;5.82;2.67;;;;;;;0.68;82.67;100600.19;5056810;28;20637;-70
2023/12/11 09:06:15;;;;;;;4.82;1.73;;;;;;;0.69;82.50;100599.34;5056270;28;20044;-70
2023/12/11 09:08:42;;;;;;;2.83;1.52;;;;;;;0.69;82.59;100594.22;5056729;28;20068;-70
2023/12/11 09:11:09;;;;;;;4.88;2.03;;;;;;;0.69;82.61;100595.06;5054453;28;20098;-70
2023/12/11 09:13:36;;;;;;;3.90;1.83;;;;;;;0.68;82.70;100597.59;5058773;28;20083;-70
2023/12/11 09:16:04;;;;;;;3.50;1.50;;;;;;;0.70;82.53;100601.94;5041932;28;20076;-70
2023/12/11 09:18:31;;;;;;;2.40;1.45;;;;;;;0.71;81.99;100592.53;5054932;28;20583;-70
2023/12/11 09:20:59;;;;;;;2.50;0.90;;;;;;;0.71;82.53;100595.09;5054197;28;20080;-70
2023/12/11 09:23:28;;;;;;;2.28;1.02;;;;;;;0.72;82.08;100599.41;5057906;28;20128;-71
2023/12/11 09:25:55;;;;;;;5.13;1.00;;;;;;;0.70;82.54;100590.78;5056988;28;20403;-70
2023/12/11 09:28:22;;;;;;;1.48;0.90;;;;;;;0.70;82.60;100593.34;5057898;28;20612;-70
2023/12/11 09:30:49;;;;;;;3.13;0.93;;;;;;;0.68;82.19;100584.72;5056266;28;20049;-68
2023/12/11 09:33:16;;;;;;;1.40;0.70;;;;;;;0.67;82.46;100585.59;5053793;28;20501;-69
2023/12/11 09:35:43;;;;;;;2.97;1.42;;;;;;;0.68;82.17;100589.88;5057029;28;20456;-69
2023/12/11 09:38:11;;;;;;;2.80;0.82;;;;;;;0.69;82.10;100595.06;5060182;28;20044;-69
2023/12/11 09:40:38;;;;;;;1.85;1.02;;;;;;;0.68;82.30;100587.31;5058231;28;20048;-71
2023/12/11 09:43:05;;;;;;;2.05;0.80;;;;;;;0.68;82.34;100577.00;5060487;28;20080;-71
2023/12/11 09:45:33;;;;;;;3.92;1.10;;;;;;;0.69;82.13;100583.91;5061455;28;20057;-71
2023/12/11 09:48:00;;;;;;;2.70;1.15;;;;;;;0.70;82.35;100575.31;5061692;28;20102;-71
2023/12/11 09:50:27;;;;;;;1.95;0.80;;;;;;;0.69;82.09;100584.78;5062231;28;20081;-71
2023/12/11 09:52:57;;;;;;;1.98;1.00;;;;;;;0.69;82.35;100584.78;5061331;28;20049;-71
2023/12/11 09:55:25;;;;;;;4.30;0.88;;;;;;;0.69;nan;100574.47;5059943;28;20410;-71
2023/12/11 09:57:53;;;;;;;5.68;1.20;;;;;;;0.69;82.65;100574.47;5057819;28;20053;-71
2023/12/11 10:00:20;;;;;;;1.77;0.73;;;;;;;0.70;82.20;100580.47;5060602;28;20094;-71
2023/12/11 10:02:51;;;;;;;2.20;0.82;;;;;;;0.71;82.65;100582.22;5059560;28;20564;-72
2023/12/11 10:05:25;;;;;;;2.15;0.90;;;;;;;0.70;82.67;100570.19;5061575;28;20138;-71
2023/12/11 10:07:52;;;;;;;0.80;0.55;;;;;;;0.69;82.58;100574.47;5060526;28;20079;-71
2023/12/11 10:10:23;;;;;;;1.02;0.70;;;;;;;0.72;82.40;100576.22;5059443;28;20045;-71
2023/12/11 10:12:52;;;;;;;2.08;0.70;;;;;;;0.70;82.70;100580.47;5058120;28;20471;-71
2023/12/11 10:15:23;;;;;;;1.15;0.95;;;;;;;0.70;82.58;100583.06;5057504;28;20048;-71
2023/12/11 10:18:08;;;;;;;2.63;0.70;;;;;;;0.68;82.21;100572.75;5053930;28;20073;-71
2023/12/11 10:20:36;;;;;;;3.40;1.30;;;;;;;0.67;82.46;100570.13;5052898;28;20055;-71
2023/12/11 10:23:18;;;;;;;1.35;0.60;;;;;;;0.68;82.06;100571.84;5052742;28;20572;-71
2023/12/11 10:25:46;;;;;;;1.50;0.52;;;;;;;0.67;82.46;100570.13;5053244;28;20123;-71
2023/12/11 10:28:16;;;;;;;1.77;0.50;;;;;;;0.65;82.11;100575.28;5057117;28;20170;-71
2023/12/11 10:30:51;;;;;;;2.97;0.70;;;;;;;0.65;82.17;100574.38;5057604;28;20191;-71
2023/12/11 10:33:18;;;;;;;;;;;;;;;0.65;82.43;100576.97;5057212;28;20134;-71
2023/12/11 10:35:45;;;;;;;0.90;0.40;;;;;;;0.62;82.29;100576.91;5054738;28;20247;-71
2023/12/11 10:38:13;;;;;;;1.77;0.57;;;;;;;0.64;82.59;100588.13;5056366;28;20048;-71
2023/12/11 10:40:41;;;;;;;1.30;0.60;;;;;;;0.64;82.24;100580.41;5055876;28;20044;-74
2023/12/11 10:43:08;;;;;;;1.88;0.50;;;;;;;0.65;82.18;100579.53;5059918;28;20556;-73
2023/12/11 10:45:37;;;;;;;2.58;0.63;;;;;;;0.64;82.71;100575.25;5058747;28;20041;-73
2023/12/11 10:48:04;;;;;;;2.47;0.70;;;;;;;0.64;82.59;100582.97;5062283;28;20066;-74
2023/12/11 10:50:31;;;;;;;3.97;1.67;;;;;;;0.63;82.23;100579.53;5058270;28;20063;-74
2023/12/11 10:53:01;;;;;;;2.67;0.93;;;;;;;0.63;82.32;100579.53;5060298;28;20055;-74
2023/12/11 10:55:29;;;;;;;2.22;1.13;;;;;;;0.63;82.04;100578.69;5036120;28;20059;-74
2023/12/11 10:57:57;;;;;;;1.77;0.98;;;;;;;0.62;81.92;100577.78;5055916;28;20045;-74
2023/12/11 11:00:25;;;;;;;4.88;0.90;;;;;;;0.63;81.78;100583.81;5056793;28;20052;-74
2023/12/11 11:02:57;;;;;;;1.63;0.73;;;;;;;0.62;81.61;100582.94;5051932;28;20131;-74
2023/12/11 11:05:26;;;;;;;2.40;0.90;;;;;;;0.60;81.70;100581.22;5053045;28;20139;-73
2023/12/11 11:08:02;;;;;;;2.42;1.27;;;;;;;0.61;82.20;100577.78;5052747;28;20132;-73
2023/12/11 11:10:35;;;;;;;2.28;1.00;;;;;;;0.61;81.60;100580.34;5057024;28;20056;-75
2023/12/11 11:13:08;;;;;;;4.53;1.65;;;;;;;0.59;81.92;100588.03;5053477;28;20140;-74
2023/12/11 11:15:35;;;;;;;3.80;1.63;;;;;;;0.60;82.08;100581.22;5051944;28;20091;-74
2023/12/11 11:18:05;;;;;;;3.28;1.55;;;;;;;0.58;81.71;100574.31;5053528;28;20097;-74
2023/12/11 11:20:32;;;;;;;3.20;1.33;;;;;;;0.57;82.29;100576.88;5050924;28;20496;-75
2023/12/11 11:23:32;;;;;;;4.07;1.98;;;;;;;0.57;82.00;100579.44;5049739;28;20852;-75
2023/12/11 11:25:59;;;;;;;3.88;1.80;;;;;;;0.57;81.80;100574.31;4988687;28;20112;-73
2023/12/11 11:28:38;;;;;;;4.32;1.80;;;;;;;0.55;81.55;100570.81;5038252;28;20045;-74
2023/12/11 11:31:05;;;;;;;2.85;1.45;;;;;;;0.53;81.70;100573.38;5046882;28;20044;-74